Time;durP1;ratioP1;P1;durP2;ratioP2;P2;SDS_P1;SDS_P2;PMS_P1;PMS_P2;Temp;Humidity;BMP_temperature;BMP_pressure;BME280_temperature;BME280_humidity;BME280_pressure;Samples;Min_cycle;Max_cycle;Signal;HPM_P1;HPM_P2
2021/08/28 00:00:32;;;;;;;1.20;0.20;;;;;;;;;;5032295;28;20029;-67
2021/08/28 00:02:59;;;;;;;0.88;0.50;;;;;;;;;;5038118;28;20029;-70
2021/08/28 00:05:26;;;;;;;2.15;0.80;;;;;;;;;;5037751;28;20020;-71
2021/08/28 00:07:54;;;;;;;0.98;0.40;;;;;;;;;;5033967;28;20513;-70
2021/08/28 00:10:22;;;;;;;1.58;0.30;;;;;;;;;;5029920;28;20052;-69
2021/08/28 00:12:49;;;;;;;3.38;0.60;;;;;;;;;;5047134;28;20021;-70
2021/08/28 00:15:16;;;;;;;1.65;0.30;;;;;;;;;;5037697;28;20036;-69
2021/08/28 00:17:44;;;;;;;0.77;0.40;;;;;;;;;;5032440;28;20056;-70
2021/08/28 00:20:12;;;;;;;1.60;0.30;;;;;;;;;;5035717;28;20374;-69
2021/08/28 00:22:39;;;;;;;0.85;0.40;;;;;;;;;;5033370;28;20095;-69
2021/08/28 00:25:06;;;;;;;2.38;0.65;;;;;;;;;;5033088;28;20025;-71
2021/08/28 00:27:34;;;;;;;1.67;0.60;;;;;;;;;;5031310;28;20018;-70
2021/08/28 00:30:01;;;;;;;1.48;0.50;;;;;;;;;;5031480;28;20555;-70
2021/08/28 00:32:29;;;;;;;1.58;0.50;;;;;;;;;;5032040;28;20104;-70
2021/08/28 00:34:56;;;;;;;1.17;0.43;;;;;;;;;;5033178;28;20032;-72
2021/08/28 00:37:23;;;;;;;1.65;0.40;;;;;;;;;;5030968;28;20414;-71
2021/08/28 00:39:50;;;;;;;0.93;0.28;;;;;;;;;;5030820;28;20040;-69
2021/08/28 00:42:17;;;;;;;1.00;0.60;;;;;;;;;;5038375;28;20048;-69
2021/08/28 00:44:45;;;;;;;0.60;0.20;;;;;;;;;;5035657;28;20036;-71
2021/08/28 00:47:15;;;;;;;1.27;0.40;;;;;;;;;;5033215;28;20041;-70
2021/08/28 00:49:42;;;;;;;0.25;0.13;;;;;;;;;;5032132;28;20037;-71
2021/08/28 00:52:09;;;;;;;0.65;0.30;;;;;;;;;;5039564;28;20048;-69
2021/08/28 00:54:37;;;;;;;1.38;0.25;;;;;;;;;;5036441;28;20053;-70
2021/08/28 00:57:04;;;;;;;1.73;0.20;;;;;;;;;;5034553;28;20029;-70
2021/08/28 00:59:32;;;;;;;1.35;0.30;;;;;;;;;;5033686;28;20029;-69
2021/08/28 01:01:59;;;;;;;0.57;0.10;;;;;;;;;;5038348;28;20027;-69
2021/08/28 01:04:27;;;;;;;0.20;0.10;;;;;;;;;;5038726;28;20397;-71
2021/08/28 01:07:14;;;;;;;1.73;0.22;;;;;;;;;;5035446;28;20017;-69
2021/08/28 01:09:43;;;;;;;0.43;0.10;;;;;;;;;;5046060;28;20036;-69
2021/08/28 01:12:14;;;;;;;2.38;0.10;;;;;;;;;;5037411;28;20021;-70
2021/08/28 01:14:43;;;;;;;0.65;0.15;;;;;;;;;;5033576;28;20520;-69
2021/08/28 01:17:11;;;;;;;1.48;0.47;;;;;;;;;;5031394;28;20034;-70
2021/08/28 01:19:39;;;;;;;0.20;0.10;;;;;;;;;;5030815;28;20041;-70
2021/08/28 01:22:10;;;;;;;1.38;0.30;;;;;;;;;;5047375;28;20097;-70
2021/08/28 01:24:40;;;;;;;0.65;0.20;;;;;;;;;;5045672;28;20053;-70
2021/08/28 01:27:13;;;;;;;0.30;0.10;;;;;;;;;;5031934;28;20100;-69
2021/08/28 01:29:41;;;;;;;1.10;0.15;;;;;;;;;;5034389;28;20067;-72
2021/08/28 01:32:09;;;;;;;0.30;0.10;;;;;;;;;;5042234;28;20025;-73
2021/08/28 01:34:38;;;;;;;1.08;0.10;;;;;;;;;;5035568;28;20030;-73
2021/08/28 01:37:06;;;;;;;0.70;0.20;;;;;;;;;;5044577;28;20049;-72
2021/08/28 01:39:34;;;;;;;0.60;0.20;;;;;;;;;;5036664;28;20056;-69
2021/08/28 01:42:03;;;;;;;0.20;0.10;;;;;;;;;;5031780;28;20479;-69
2021/08/28 01:44:31;;;;;;;0.38;0.20;;;;;;;;;;5033593;28;20037;-69
2021/08/28 01:46:58;;;;;;;0.75;0.17;;;;;;;;;;5040932;28;20026;-70
2021/08/28 01:49:26;;;;;;;1.20;0.20;;;;;;;;;;5034282;28;20033;-68
2021/08/28 01:51:53;;;;;;;2.00;0.30;;;;;;;;;;5035062;28;20075;-70
2021/08/28 01:54:21;;;;;;;0.35;0.00;;;;;;;;;;5042036;28;20025;-69
2021/08/28 01:56:48;;;;;;;0.35;0.10;;;;;;;;;;5046638;28;20029;-70
2021/08/28 01:59:15;;;;;;;1.33;0.10;;;;;;;;;;5035533;28;20167;-70
2021/08/28 02:01:42;;;;;;;0.93;0.10;;;;;;;;;;5037333;28;20437;-70
2021/08/28 02:04:09;;;;;;;0.10;0.05;;;;;;;;;;5039192;28;20393;-69
2021/08/28 02:06:37;;;;;;;0.63;0.20;;;;;;;;;;5045107;28;20030;-69
2021/08/28 02:09:24;;;;;;;1.48;0.10;;;;;;;;;;5036554;28;20029;-70
2021/08/28 02:12:08;;;;;;;0.50;0.43;;;;;;;;;;5037588;28;20127;-70
2021/08/28 02:15:01;;;;;;;0.52;0.30;;;;;;;;;;5041755;28;20052;-70
2021/08/28 02:17:30;;;;;;;0.20;0.10;;;;;;;;;;5037420;28;20519;-71
2021/08/28 02:19:59;;;;;;;0.30;0.10;;;;;;;;;;5034537;28;20033;-69
2021/08/28 02:22:30;;;;;;;0.43;0.22;;;;;;;;;;5035021;28;20021;-70
2021/08/28 02:25:02;;;;;;;1.20;0.30;;;;;;;;;;5034266;28;20482;-70
2021/08/28 02:27:44;;;;;;;0.40;0.10;;;;;;;;;;5040026;28;20477;-70
2021/08/28 02:30:13;;;;;;;0.10;0.00;;;;;;;;;;5040597;28;20031;-70
2021/08/28 02:32:41;;;;;;;0.77;0.17;;;;;;;;;;5034834;28;20025;-69
2021/08/28 02:35:09;;;;;;;0.63;0.30;;;;;;;;;;5035921;28;20470;-70
2021/08/28 02:37:38;;;;;;;0.22;0.10;;;;;;;;;;5032891;28;20042;-70
2021/08/28 02:40:10;;;;;;;0.35;0.10;;;;;;;;;;5036338;28;20029;-68
2021/08/28 02:42:39;;;;;;;0.10;0.00;;;;;;;;;;5035623;28;20031;-70
2021/08/28 02:45:07;;;;;;;0.00;0.00;;;;;;;;;;5035565;28;20031;-69
2021/08/28 02:47:34;;;;;;;1.50;0.20;;;;;;;;;;5036169;28;20017;-68
2021/08/28 02:50:01;;;;;;;0.43;0.10;;;;;;;;;;5033122;28;20030;-70
2021/08/28 02:52:29;;;;;;;1.58;0.25;;;;;;;;;;5038601;28;20470;-69
2021/08/28 02:54:58;;;;;;;2.85;0.40;;;;;;;;;;5040702;28;20017;-68
2021/08/28 02:57:26;;;;;;;1.38;0.13;;;;;;;;;;5053631;28;20021;-69
2021/08/28 02:59:53;;;;;;;2.22;0.20;;;;;;;;;;5041724;28;20037;-69
2021/08/28 03:02:21;;;;;;;0.65;0.10;;;;;;;;;;5042979;28;20036;-69
2021/08/28 03:04:49;;;;;;;0.32;0.10;;;;;;;;;;5047182;28;20033;-70
2021/08/28 03:07:18;;;;;;;0.20;0.15;;;;;;;;;;5053670;28;20025;-69
2021/08/28 03:09:46;;;;;;;1.55;0.15;;;;;;;;;;5044002;28;20057;-70
2021/08/28 03:12:13;;;;;;;0.85;0.20;;;;;;;;;;5052475;28;20414;-70
2021/08/28 03:14:41;;;;;;;1.58;0.30;;;;;;;;;;5030428;28;20118;-68
2021/08/28 03:17:10;;;;;;;2.03;0.43;;;;;;;;;;5036456;28;20025;-69
2021/08/28 03:19:39;;;;;;;0.82;0.20;;;;;;;;;;5039066;28;20426;-69
2021/08/28 03:22:07;;;;;;;0.70;0.20;;;;;;;;;;5039653;28;20040;-69
2021/08/28 03:24:34;;;;;;;0.52;0.10;;;;;;;;;;5033072;28;20033;-68
2021/08/28 03:27:01;;;;;;;0.98;0.15;;;;;;;;;;5032867;28;20393;-70
2021/08/28 03:29:29;;;;;;;1.20;0.10;;;;;;;;;;5034149;28;20044;-69
2021/08/28 03:31:59;;;;;;;1.80;0.20;;;;;;;;;;5034598;28;20026;-70
2021/08/28 03:34:27;;;;;;;1.13;0.15;;;;;;;;;;5039238;28;20021;-70
2021/08/28 03:36:54;;;;;;;2.47;0.10;;;;;;;;;;5041684;28;20049;-69
2021/08/28 03:39:21;;;;;;;0.80;0.22;;;;;;;;;;5038659;28;20076;-70
2021/08/28 03:41:48;;;;;;;1.00;0.30;;;;;;;;;;5036285;28;20036;-71
2021/08/28 03:44:16;;;;;;;1.63;0.22;;;;;;;;;;5038478;28;20112;-71
2021/08/28 03:46:48;;;;;;;2.13;0.30;;;;;;;;;;5044180;28;20063;-71
2021/08/28 03:49:15;;;;;;;2.53;0.40;;;;;;;;;;5044519;28;20125;-71
2021/08/28 03:51:42;;;;;;;1.00;0.22;;;;;;;;;;5033668;28;20017;-70
2021/08/28 03:54:10;;;;;;;3.40;0.20;;;;;;;;;;5044896;28;20516;-71
2021/08/28 03:56:37;;;;;;;0.70;0.20;;;;;;;;;;5044185;28;20378;-70
2021/08/28 03:59:04;;;;;;;1.33;0.52;;;;;;;;;;5048063;28;20091;-70
2021/08/28 04:01:31;;;;;;;1.00;0.20;;;;;;;;;;5033004;28;20017;-70
2021/08/28 04:03:58;;;;;;;0.50;0.10;;;;;;;;;;5034967;28;20026;-71
2021/08/28 04:06:26;;;;;;;1.40;0.10;;;;;;;;;;5032122;28;20101;-70
2021/08/28 04:08:53;;;;;;;0.68;0.20;;;;;;;;;;5032064;28;20026;-69
2021/08/28 04:11:20;;;;;;;0.57;0.10;;;;;;;;;;5033652;28;20036;-71
2021/08/28 04:13:47;;;;;;;0.20;0.10;;;;;;;;;;5039865;28;20029;-70
2021/08/28 04:16:14;;;;;;;0.43;0.10;;;;;;;;;;5035259;28;20038;-70
2021/08/28 04:18:41;;;;;;;5.05;0.93;;;;;;;;;;5035263;28;20026;-70
2021/08/28 04:21:08;;;;;;;2.33;0.52;;;;;;;;;;5040019;28;20025;-71
2021/08/28 04:23:35;;;;;;;3.72;0.70;;;;;;;;;;5040420;28;20025;-70
2021/08/28 04:26:03;;;;;;;2.90;0.47;;;;;;;;;;5039057;28;20017;-70
2021/08/28 04:28:30;;;;;;;4.88;0.70;;;;;;;;;;5033091;28;20029;-70
2021/08/28 04:30:57;;;;;;;3.92;0.47;;;;;;;;;;5039206;28;20026;-70
2021/08/28 04:33:24;;;;;;;2.33;0.30;;;;;;;;;;5041150;28;20021;-69
2021/08/28 04:35:51;;;;;;;4.10;0.73;;;;;;;;;;5038004;28;20371;-70
2021/08/28 04:38:18;;;;;;;5.85;0.85;;;;;;;;;;5043974;28;20478;-69
2021/08/28 04:40:50;;;;;;;4.30;0.55;;;;;;;;;;5032215;28;20337;-69
2021/08/28 04:43:17;;;;;;;4.45;0.55;;;;;;;;;;5037250;28;20500;-70
2021/08/28 04:45:44;;;;;;;2.15;0.50;;;;;;;;;;5032589;28;20034;-71
2021/08/28 04:48:12;;;;;;;3.85;0.80;;;;;;;;;;5037707;28;20030;-70
2021/08/28 04:50:39;;;;;;;4.03;0.73;;;;;;;;;;5036121;28;20025;-70
2021/08/28 04:53:06;;;;;;;4.50;0.60;;;;;;;;;;5033588;28;20017;-69
2021/08/28 04:55:33;;;;;;;5.43;1.05;;;;;;;;;;5034574;28;20013;-70
2021/08/28 04:58:00;;;;;;;4.47;0.95;;;;;;;;;;5034175;28;20105;-69
2021/08/28 05:00:28;;;;;;;3.15;0.63;;;;;;;;;;5032278;28;20037;-72
2021/08/28 05:02:55;;;;;;;5.15;0.60;;;;;;;;;;5031217;28;20068;-70
2021/08/28 05:05:22;;;;;;;5.70;0.70;;;;;;;;;;5031794;28;20022;-69
2021/08/28 05:07:49;;;;;;;2.70;0.50;;;;;;;;;;5031922;28;20026;-71
2021/08/28 05:10:16;;;;;;;2.40;0.60;;;;;;;;;;5043829;28;20074;-70
2021/08/28 05:12:43;;;;;;;5.10;0.90;;;;;;;;;;5031925;28;20017;-68
2021/08/28 05:15:11;;;;;;;5.50;1.05;;;;;;;;;;5042151;28;20021;-69
2021/08/28 05:17:38;;;;;;;9.52;1.92;;;;;;;;;;5032150;28;20486;-69
2021/08/28 05:20:05;;;;;;;5.30;1.30;;;;;;;;;;5034241;28;20032;-70
2021/08/28 05:22:32;;;;;;;3.05;1.23;;;;;;;;;;5043654;28;20026;-69
2021/08/28 05:24:59;;;;;;;5.47;0.80;;;;;;;;;;5041779;28;20029;-70
2021/08/28 05:27:27;;;;;;;6.05;0.88;;;;;;;;;;5036821;28;20029;-68
2021/08/28 05:29:55;;;;;;;4.25;1.13;;;;;;;;;;5041855;28;20071;-69
2021/08/28 05:32:23;;;;;;;6.18;1.83;;;;;;;;;;5036787;28;20013;-70
2021/08/28 05:34:51;;;;;;;6.40;2.38;;;;;;;;;;5038548;28;20020;-69
2021/08/28 05:37:19;;;;;;;4.47;1.60;;;;;;;;;;5036534;28;20053;-70
2021/08/28 05:39:46;;;;;;;6.38;2.25;;;;;;;;;;5035587;28;20031;-69
2021/08/28 05:42:13;;;;;;;4.35;1.30;;;;;;;;;;5047017;28;20021;-69
2021/08/28 05:44:40;;;;;;;4.57;0.43;;;;;;;;;;5037610;28;20388;-69
2021/08/28 05:47:07;;;;;;;1.63;0.22;;;;;;;;;;5044258;28;20044;-70
2021/08/28 05:49:35;;;;;;;6.75;0.70;;;;;;;;;;5047392;28;20025;-70
2021/08/28 05:52:02;;;;;;;4.72;0.70;;;;;;;;;;5035349;28;20100;-70
2021/08/28 05:54:29;;;;;;;4.40;0.60;;;;;;;;;;5045239;28;20029;-70
2021/08/28 05:56:56;;;;;;;5.40;0.57;;;;;;;;;;5055352;28;20024;-70
2021/08/28 05:59:23;;;;;;;4.25;0.98;;;;;;;;;;5047653;28;20033;-69
2021/08/28 06:01:52;;;;;;;2.97;0.75;;;;;;;;;;5035435;28;20501;-70
2021/08/28 06:04:19;;;;;;;3.30;0.60;;;;;;;;;;5034924;28;20087;-70
2021/08/28 06:06:46;;;;;;;4.00;1.02;;;;;;;;;;5035282;28;20505;-71
2021/08/28 06:09:13;;;;;;;4.30;0.90;;;;;;;;;;5037986;28;20060;-70
2021/08/28 06:11:40;;;;;;;3.92;0.73;;;;;;;;;;5055009;28;20032;-69
2021/08/28 06:14:08;;;;;;;2.92;0.40;;;;;;;;;;5052823;28;20064;-70
2021/08/28 06:16:35;;;;;;;3.22;0.55;;;;;;;;;;5054784;28;20027;-69
2021/08/28 06:19:02;;;;;;;4.40;0.70;;;;;;;;;;5043994;28;20029;-69
2021/08/28 06:21:31;;;;;;;4.40;1.48;;;;;;;;;;5054938;28;20025;-69
2021/08/28 06:23:59;;;;;;;3.55;0.75;;;;;;;;;;5044743;28;20101;-69
2021/08/28 06:26:26;;;;;;;9.02;1.00;;;;;;;;;;5035010;28;20450;-70
2021/08/28 06:28:53;;;;;;;4.32;0.60;;;;;;;;;;5034593;28;20112;-70
2021/08/28 06:31:20;;;;;;;2.83;0.50;;;;;;;;;;5052914;28;20036;-70
2021/08/28 06:33:47;;;;;;;4.65;0.50;;;;;;;;;;5051934;28;20020;-70
2021/08/28 06:36:14;;;;;;;5.97;0.93;;;;;;;;;;5033695;28;20021;-69
2021/08/28 06:38:41;;;;;;;2.33;0.40;;;;;;;;;;5034726;28;20052;-70
2021/08/28 06:41:08;;;;;;;3.53;0.90;;;;;;;;;;5034613;28;20036;-70
2021/08/28 06:43:35;;;;;;;3.28;0.50;;;;;;;;;;5034280;28;20030;-69
2021/08/28 06:46:03;;;;;;;3.30;0.63;;;;;;;;;;5050927;28;20031;-69
2021/08/28 06:48:30;;;;;;;2.92;0.70;;;;;;;;;;5053764;28;20055;-69
2021/08/28 06:50:57;;;;;;;1.60;0.60;;;;;;;;;;5034341;28;20096;-70
2021/08/28 06:53:24;;;;;;;2.88;0.40;;;;;;;;;;5033413;28;20489;-69
2021/08/28 06:55:51;;;;;;;4.45;0.80;;;;;;;;;;5034352;28;20029;-71
2021/08/28 06:58:18;;;;;;;4.40;1.00;;;;;;;;;;5040933;28;20033;-69
2021/08/28 07:00:45;;;;;;;4.32;0.80;;;;;;;;;;5035110;28;20129;-70
2021/08/28 07:03:12;;;;;;;3.55;0.57;;;;;;;;;;5034252;28;20029;-70
2021/08/28 07:05:40;;;;;;;5.57;0.60;;;;;;;;;;5045897;28;20124;-70
2021/08/28 07:08:07;;;;;;;3.53;0.50;;;;;;;;;;5033615;28;20033;-71
2021/08/28 07:10:34;;;;;;;4.00;0.95;;;;;;;;;;5033866;28;20444;-70
2021/08/28 07:13:01;;;;;;;2.63;0.82;;;;;;;;;;5033485;28;20026;-70
2021/08/28 07:15:28;;;;;;;5.10;0.95;;;;;;;;;;5036162;28;20041;-70
2021/08/28 07:17:55;;;;;;;3.38;0.70;;;;;;;;;;5041016;28;20434;-70
2021/08/28 07:20:22;;;;;;;3.65;0.55;;;;;;;;;;5038372;28;20048;-69
2021/08/28 07:22:49;;;;;;;2.72;0.60;;;;;;;;;;5032624;28;20037;-69
2021/08/28 07:25:18;;;;;;;3.13;0.60;;;;;;;;;;5033600;28;20490;-70
2021/08/28 07:27:45;;;;;;;2.83;0.75;;;;;;;;;;5033920;28;20013;-69
2021/08/28 07:30:13;;;;;;;3.67;0.80;;;;;;;;;;5033855;28;20030;-69
2021/08/28 07:32:40;;;;;;;6.10;1.35;;;;;;;;;;5033736;28;20032;-69
2021/08/28 07:35:07;;;;;;;5.88;0.77;;;;;;;;;;5033401;28;20057;-70
2021/08/28 07:37:34;;;;;;;2.28;0.60;;;;;;;;;;5033604;28;20037;-70
2021/08/28 07:40:02;;;;;;;5.35;1.48;;;;;;;;;;5044295;28;20086;-70
2021/08/28 07:42:29;;;;;;;2.67;0.90;;;;;;;;;;5050341;28;20567;-70
2021/08/28 07:44:56;;;;;;;4.63;1.25;;;;;;;;;;5034093;28;20017;-71
2021/08/28 07:47:23;;;;;;;4.18;0.82;;;;;;;;;;5039900;28;20095;-70
2021/08/28 07:49:50;;;;;;;3.50;1.00;;;;;;;;;;5040059;28;20095;-70
2021/08/28 07:52:18;;;;;;;4.35;0.90;;;;;;;;;;5038879;28;20017;-70
2021/08/28 07:54:46;;;;;;;2.47;0.65;;;;;;;;;;5037851;28;20044;-70
2021/08/28 07:57:13;;;;;;;7.78;1.45;;;;;;;;;;5041004;28;20033;-70
2021/08/28 07:59:40;;;;;;;4.88;0.60;;;;;;;;;;5035225;28;20534;-71
2021/08/28 08:02:08;;;;;;;5.10;1.35;;;;;;;;;;5041405;28;20021;-70
2021/08/28 08:04:35;;;;;;;4.70;1.58;;;;;;;;;;5035330;28;20032;-70
2021/08/28 08:07:02;;;;;;;8.57;2.40;;;;;;;;;;5032848;28;20017;-70
2021/08/28 08:09:29;;;;;;;7.32;2.58;;;;;;;;;;5035634;28;20033;-70
2021/08/28 08:11:57;;;;;;;8.98;2.50;;;;;;;;;;5042331;28;20017;-70
2021/08/28 08:14:24;;;;;;;4.22;1.63;;;;;;;;;;5040315;28;20063;-71
2021/08/28 08:16:51;;;;;;;9.40;2.08;;;;;;;;;;5040107;28;20393;-71
2021/08/28 08:19:18;;;;;;;5.35;0.95;;;;;;;;;;5033107;28;20041;-70
2021/08/28 08:21:45;;;;;;;6.15;1.70;;;;;;;;;;5033048;28;20024;-70
2021/08/28 08:24:12;;;;;;;4.85;2.30;;;;;;;;;;5034797;28;20029;-70
2021/08/28 08:26:39;;;;;;;6.10;1.70;;;;;;;;;;5032775;28;20500;-70
2021/08/28 08:29:07;;;;;;;5.82;1.75;;;;;;;;;;5039960;28;20033;-70
2021/08/28 08:31:34;;;;;;;3.67;1.15;;;;;;;;;;5032568;28;20034;-70
2021/08/28 08:34:01;;;;;;;4.65;1.30;;;;;;;;;;5034842;28;20106;-71
2021/08/28 08:36:28;;;;;;;6.95;1.17;;;;;;;;;;5037978;28;20029;-71
2021/08/28 08:38:55;;;;;;;5.18;1.88;;;;;;;;;;5031808;28;20025;-71
2021/08/28 08:41:24;;;;;;;6.57;2.17;;;;;;;;;;5032188;28;20030;-70
2021/08/28 08:43:53;;;;;;;7.03;2.25;;;;;;;;;;5032648;28;20025;-72
2021/08/28 08:46:23;;;;;;;9.95;2.70;;;;;;;;;;5030075;28;20029;-73
2021/08/28 08:48:51;;;;;;;8.30;2.00;;;;;;;;;;5042971;28;20566;-72
2021/08/28 08:51:19;;;;;;;5.80;1.75;;;;;;;;;;5047243;28;20390;-72
2021/08/28 08:53:50;;;;;;;5.88;1.83;;;;;;;;;;5042073;28;20059;-72
2021/08/28 08:56:18;;;;;;;6.55;1.90;;;;;;;;;;5034600;28;20034;-71
2021/08/28 08:58:46;;;;;;;7.60;2.75;;;;;;;;;;5034316;28;20022;-71
2021/08/28 09:01:13;;;;;;;7.15;2.60;;;;;;;;;;5040137;28;20034;-72
2021/08/28 09:03:40;;;;;;;11.93;4.40;;;;;;;;;;5030822;28;20029;-72
2021/08/28 09:06:07;;;;;;;8.75;3.50;;;;;;;;;;5030824;28;20060;-72
2021/08/28 09:08:34;;;;;;;13.18;3.75;;;;;;;;;;5045245;28;20032;-72
2021/08/28 09:11:02;;;;;;;14.00;3.70;;;;;;;;;;5030438;28;20033;-72
2021/08/28 09:13:29;;;;;;;12.18;3.78;;;;;;;;;;5031234;28;20053;-72
2021/08/28 09:16:04;;;;;;;10.32;3.95;;;;;;;;;;5035953;28;20109;-72
2021/08/28 09:18:51;;;;;;;12.43;4.00;;;;;;;;;;5031729;28;20048;-71
2021/08/28 09:21:21;;;;;;;13.38;3.72;;;;;;;;;;5031784;28;20418;-72
2021/08/28 09:23:48;;;;;;;12.48;3.97;;;;;;;;;;5031462;28;20413;-72
2021/08/28 09:26:28;;;;;;;9.95;4.78;;;;;;;;;;5033015;28;20087;-72
2021/08/28 09:28:56;;;;;;;12.93;5.45;;;;;;;;;;5035405;28;20026;-72
2021/08/28 09:31:40;;;;;;;15.25;6.07;;;;;;;;;;5043067;28;20134;-71
2021/08/28 09:34:24;;;;;;;14.73;6.90;;;;;;;;;;5041995;28;20021;-72
2021/08/28 09:36:55;;;;;;;14.55;6.43;;;;;;;;;;5036069;28;20076;-72
2021/08/28 09:39:36;;;;;;;12.25;5.32;;;;;;;;;;5034088;28;20474;-71
2021/08/28 09:42:03;;;;;;;12.55;5.93;;;;;;;;;;5041868;28;20060;-71
2021/08/28 09:44:35;;;;;;;11.43;5.28;;;;;;;;;;5031264;28;20033;-71
2021/08/28 09:47:13;;;;;;;14.38;5.47;;;;;;;;;;5035679;28;20055;-72
2021/08/28 09:49:41;;;;;;;10.68;4.45;;;;;;;;;;5036257;28;20022;-72
2021/08/28 09:52:12;;;;;;;16.02;5.15;;;;;;;;;;5033071;28;20029;-72
2021/08/28 09:54:40;;;;;;;12.18;5.43;;;;;;;;;;5041940;28;20055;-72
2021/08/28 09:57:07;;;;;;;13.48;5.65;;;;;;;;;;5050257;28;20017;-72
2021/08/28 09:59:35;;;;;;;18.48;5.57;;;;;;;;;;5046323;28;20098;-71
2021/08/28 10:02:10;;;;;;;12.77;5.20;;;;;;;;;;5042188;28;20424;-72
2021/08/28 10:04:54;;;;;;;11.20;5.05;;;;;;;;;;5039053;28;20032;-71
2021/08/28 10:07:25;;;;;;;14.65;4.97;;;;;;;;;;5032530;28;20037;-71
2021/08/28 10:10:00;;;;;;;14.63;5.32;;;;;;;;;;5053749;28;20104;-71
2021/08/28 10:12:27;;;;;;;10.25;5.28;;;;;;;;;;5043689;28;20066;-71
2021/08/28 10:14:55;;;;;;;17.48;6.22;;;;;;;;;;5036583;28;20022;-71
2021/08/28 10:17:24;;;;;;;14.05;7.40;;;;;;;;;;5037795;28;20025;-70
2021/08/28 10:19:57;;;;;;;22.63;8.18;;;;;;;;;;5040597;28;20100;-71
2021/08/28 10:22:27;;;;;;;17.80;7.88;;;;;;;;;;5036646;28;20086;-71
2021/08/28 10:24:58;;;;;;;14.23;7.10;;;;;;;;;;5037967;28;20479;-72
2021/08/28 10:27:28;;;;;;;20.27;7.43;;;;;;;;;;5042869;28;20047;-72
2021/08/28 10:29:56;;;;;;;19.00;9.00;;;;;;;;;;5035729;28;20022;-71
2021/08/28 10:32:23;;;;;;;15.98;7.65;;;;;;;;;;5042768;28;20032;-70
2021/08/28 10:34:51;;;;;;;15.93;8.40;;;;;;;;;;5043539;28;20027;-71
2021/08/28 10:37:19;;;;;;;18.17;8.65;;;;;;;;;;5038748;28;20048;-71
2021/08/28 10:39:49;;;;;;;15.80;7.82;;;;;;;;;;5043006;28;20048;-71
2021/08/28 10:42:17;;;;;;;15.27;7.03;;;;;;;;;;5048052;28;20059;-71
2021/08/28 10:44:44;;;;;;;15.48;6.78;;;;;;;;;;5047163;28;20049;-73
2021/08/28 10:47:21;;;;;;;13.30;6.00;;;;;;;;;;5040422;28;20041;-72
2021/08/28 10:49:52;;;;;;;16.00;5.32;;;;;;;;;;5037294;28;20021;-72
2021/08/28 10:52:21;;;;;;;12.50;5.70;;;;;;;;;;5052987;28;20045;-71
2021/08/28 10:55:14;;;;;;;15.73;5.40;;;;;;;;;;5043876;28;20067;-71
2021/08/28 10:57:42;;;;;;;15.38;5.35;;;;;;;;;;5039943;28;20378;-71
2021/08/28 11:00:14;;;;;;;14.07;5.05;;;;;;;;;;5040418;28;20029;-71
2021/08/28 11:02:50;;;;;;;12.15;5.32;;;;;;;;;;5044715;28;20123;-72
2021/08/28 11:05:18;;;;;;;14.52;6.20;;;;;;;;;;5037982;28;20035;-72
2021/08/28 11:07:45;;;;;;;16.73;7.28;;;;;;;;;;5040817;28;20030;-72
2021/08/28 11:10:19;;;;;;;18.48;6.45;;;;;;;;;;5037156;28;20029;-72
2021/08/28 11:12:46;;;;;;;16.40;6.78;;;;;;;;;;5033049;28;20121;-71
2021/08/28 11:15:27;;;;;;;17.30;7.30;;;;;;;;;;5036667;28;20056;-71
2021/08/28 11:17:55;;;;;;;18.70;7.13;;;;;;;;;;5039552;28;20371;-71
2021/08/28 11:20:42;;;;;;;18.90;6.50;;;;;;;;;;5038589;28;20116;-71
2021/08/28 11:23:14;;;;;;;14.40;7.90;;;;;;;;;;5034652;28;20020;-71
2021/08/28 11:25:43;;;;;;;16.95;6.70;;;;;;;;;;5035077;28;20029;-71
2021/08/28 11:28:11;;;;;;;14.65;6.93;;;;;;;;;;5038235;28;20566;-71
2021/08/28 11:30:47;;;;;;;17.02;6.43;;;;;;;;;;5036639;28;20028;-71
2021/08/28 11:33:17;;;;;;;16.30;7.32;;;;;;;;;;5035952;28;20104;-71
2021/08/28 11:35:48;;;;;;;15.68;8.50;;;;;;;;;;5037792;28;20029;-71
2021/08/28 11:38:20;;;;;;;15.35;7.30;;;;;;;;;;5033723;28;20049;-72
2021/08/28 11:41:03;;;;;;;12.93;6.50;;;;;;;;;;5034455;28;20125;-71
2021/08/28 11:43:56;;;;;;;15.57;7.13;;;;;;;;;;5042859;28;20108;-71
2021/08/28 11:46:24;;;;;;;18.55;7.15;;;;;;;;;;5039707;28;20478;-71
2021/08/28 11:48:52;;;;;;;15.13;7.20;;;;;;;;;;5035655;28;20367;-72
2021/08/28 11:51:20;;;;;;;18.38;7.18;;;;;;;;;;5035678;28;20021;-73
2021/08/28 11:53:51;;;;;;;15.77;7.28;;;;;;;;;;5035129;28;20493;-73
2021/08/28 11:56:19;;;;;;;17.27;6.60;;;;;;;;;;5039566;28;20033;-71
2021/08/28 11:58:49;;;;;;;13.82;5.85;;;;;;;;;;5042623;28;20055;-72
2021/08/28 12:01:36;;;;;;;16.52;6.38;;;;;;;;;;5045304;28;20035;-73
2021/08/28 12:04:07;;;;;;;14.63;7.00;;;;;;;;;;5041958;28;20048;-71
2021/08/28 12:06:36;;;;;;;15.38;7.28;;;;;;;;;;5033099;28;20022;-72
2021/08/28 12:09:04;;;;;;;16.80;6.78;;;;;;;;;;5032364;28;20037;-71
2021/08/28 12:11:31;;;;;;;14.45;8.00;;;;;;;;;;5038517;28;20049;-71
2021/08/28 12:13:59;;;;;;;17.60;7.18;;;;;;;;;;5043371;28;20025;-72
2021/08/28 12:16:37;;;;;;;15.68;7.55;;;;;;;;;;5036715;28;20033;-71
2021/08/28 12:19:11;;;;;;;18.95;7.18;;;;;;;;;;5035912;28;20033;-71
2021/08/28 12:21:40;;;;;;;16.38;7.20;;;;;;;;;;5033797;28;20442;-71
2021/08/28 12:24:13;;;;;;;14.55;7.68;;;;;;;;;;5034664;28;20131;-71
2021/08/28 12:26:41;;;;;;;15.88;6.45;;;;;;;;;;5035416;28;20052;-72
2021/08/28 12:29:08;;;;;;;14.70;6.07;;;;;;;;;;5041413;28;20461;-71
2021/08/28 12:31:36;;;;;;;15.40;6.32;;;;;;;;;;5045190;28;20128;-72
2021/08/28 12:34:19;;;;;;;13.98;6.85;;;;;;;;;;5042118;28;20033;-72
2021/08/28 12:36:47;;;;;;;14.77;6.47;;;;;;;;;;5034271;28;20048;-71
2021/08/28 12:39:14;;;;;;;16.48;6.65;;;;;;;;;;5041619;28;20024;-71
2021/08/28 12:41:42;;;;;;;16.63;6.50;;;;;;;;;;5033304;28;20025;-71
2021/08/28 12:44:10;;;;;;;13.00;6.40;;;;;;;;;;5041187;28;20025;-72
2021/08/28 12:46:38;;;;;;;13.50;6.00;;;;;;;;;;5038507;28;20021;-72
2021/08/28 12:49:20;;;;;;;14.00;5.22;;;;;;;;;;5042652;28;20025;-72
2021/08/28 12:51:52;;;;;;;14.52;5.88;;;;;;;;;;5042553;28;20025;-72
2021/08/28 12:54:23;;;;;;;10.73;6.22;;;;;;;;;;5035138;28;20059;-72
2021/08/28 12:56:51;;;;;;;11.57;5.78;;;;;;;;;;5032922;28;20025;-72
2021/08/28 12:59:22;;;;;;;14.85;6.28;;;;;;;;;;5044607;28;20034;-71
2021/08/28 13:01:51;;;;;;;14.48;5.47;;;;;;;;;;5035355;28;20028;-71
2021/08/28 13:04:18;;;;;;;15.90;6.82;;;;;;;;;;5032896;28;20159;-72
2021/08/28 13:07:04;;;;;;;12.68;6.03;;;;;;;;;;5042370;28;20028;-73
2021/08/28 13:09:32;;;;;;;10.88;6.45;;;;;;;;;;5038943;28;20037;-73
2021/08/28 13:11:59;;;;;;;13.32;6.38;;;;;;;;;;5034280;28;20029;-72
2021/08/28 13:14:26;;;;;;;13.70;7.28;;;;;;;;;;5036434;28;20064;-72
2021/08/28 13:16:56;;;;;;;13.90;6.55;;;;;;;;;;5039247;28;20045;-71
2021/08/28 13:19:33;;;;;;;14.50;7.07;;;;;;;;;;5035572;28;20561;-72
2021/08/28 13:22:01;;;;;;;12.73;7.53;;;;;;;;;;5042405;28;21935;-72
2021/08/28 13:24:28;;;;;;;13.95;8.05;;;;;;;;;;5035333;28;20021;-72
2021/08/28 13:26:59;;;;;;;14.60;7.40;;;;;;;;;;5034348;28;20025;-73
2021/08/28 13:29:30;;;;;;;13.35;7.55;;;;;;;;;;5037046;28;20052;-72
2021/08/28 13:32:11;;;;;;;19.38;9.88;;;;;;;;;;5034710;28;20024;-72
2021/08/28 13:34:48;;;;;;;18.58;10.85;;;;;;;;;;5041489;28;20025;-72
2021/08/28 13:37:17;;;;;;;19.13;10.23;;;;;;;;;;5037653;28;20491;-73
2021/08/28 13:39:45;;;;;;;23.95;11.63;;;;;;;;;;5038369;28;20029;-73
2021/08/28 13:42:26;;;;;;;21.45;11.07;;;;;;;;;;5043649;28;20028;-72
2021/08/28 13:44:53;;;;;;;17.70;11.20;;;;;;;;;;5042387;28;20080;-72
2021/08/28 13:47:21;;;;;;;20.80;11.63;;;;;;;;;;5037809;28;20053;-72
2021/08/28 13:49:48;;;;;;;18.13;10.40;;;;;;;;;;5039871;28;20029;-73
2021/08/28 13:52:16;;;;;;;17.35;10.30;;;;;;;;;;5035120;28;20061;-72
2021/08/28 13:54:44;;;;;;;18.70;9.35;;;;;;;;;;5040064;28;20024;-72
2021/08/28 13:57:11;;;;;;;20.08;9.95;;;;;;;;;;5036747;28;20033;-73
2021/08/28 13:59:38;;;;;;;14.27;9.30;;;;;;;;;;5041611;28;20028;-73
2021/08/28 14:02:05;;;;;;;21.73;9.30;;;;;;;;;;5042403;28;20071;-73
2021/08/28 14:04:32;;;;;;;27.70;11.07;;;;;;;;;;5037842;28;20037;-73
2021/08/28 14:06:59;;;;;;;22.30;9.43;;;;;;;;;;5035779;28;20044;-73
2021/08/28 14:09:26;;;;;;;18.67;9.25;;;;;;;;;;5040317;28;20063;-73
2021/08/28 14:11:54;;;;;;;17.05;9.50;;;;;;;;;;5037027;28;20127;-72
2021/08/28 14:14:21;;;;;;;19.00;10.65;;;;;;;;;;5041847;28;20041;-72
2021/08/28 14:16:48;;;;;;;24.67;11.45;;;;;;;;;;5037805;28;20040;-72
2021/08/28 14:19:15;;;;;;;18.42;10.45;;;;;;;;;;5043372;28;20036;-72
2021/08/28 14:21:42;;;;;;;19.52;10.15;;;;;;;;;;5038703;28;20025;-73
2021/08/28 14:24:09;;;;;;;25.08;11.77;;;;;;;;;;5033182;28;20033;-71
2021/08/28 14:26:36;;;;;;;19.35;10.02;;;;;;;;;;5036982;28;20025;-73
2021/08/28 14:29:03;;;;;;;14.57;9.07;;;;;;;;;;5034151;28;20417;-73
2021/08/28 14:31:31;;;;;;;22.80;11.02;;;;;;;;;;5038401;28;20022;-72
2021/08/28 14:33:58;;;;;;;18.05;10.63;;;;;;;;;;5035133;28;20446;-72
2021/08/28 14:36:26;;;;;;;19.55;10.05;;;;;;;;;;5039601;28;20025;-72
2021/08/28 14:38:53;;;;;;;21.45;9.05;;;;;;;;;;5039200;28;20017;-72
2021/08/28 14:41:20;;;;;;;19.33;9.60;;;;;;;;;;5034383;28;20386;-72
2021/08/28 14:43:47;;;;;;;17.30;10.05;;;;;;;;;;5036749;28;20041;-72
2021/08/28 14:46:14;;;;;;;20.52;10.68;;;;;;;;;;5039593;28;20029;-72
2021/08/28 14:48:41;;;;;;;19.95;9.13;;;;;;;;;;5038760;28;20548;-72